aviador You're here:

KNFG Decoded Metar

CAMP PENDLETON in CA, USA
Report Time2018-01-18 08:55:00
UTC Time2018-01-18 10:02:15
Flight Rules Old
Wind060° at 06 kt
W.Decomp.*RWY 03: 5.7 kt HW 1.8 kt RCW
W.Rank060° ranks 10
Current wind is above 060° avg. (4.1)
Visibility9999 m
Phenomena:N/A
Clouds:N/A
Expected CloudBase > 400 ft AGL from Temp-Dew spread
CeilingNone
Temp09°C (ISA -6)
Dew Point08°C (94% RH)
AAT6.4°C
QNH1019 hPa
Density Alt-679 ft
Elevation79 ft
Report Wrong Elevation
Raw Report
KNFG 180855Z AUTO 06006KT 10SM CLR 09/08 A3009 RMK AO2 SLP190
T00940083 58002=

Extra information for KNFG:More info

Metar Taf Metar & Taf Last 4 Metars F.Rules Stats Wind Profile Meteogram Temp Stats Airport Information Weather charts Add Link Nearby VenuesMetar ALERT Operation Metar Decoded Social comments

AIRNAV info for KNFG